createdAt,value
2023-02-24T00:01:37.678Z,98.44
2023-02-24T00:04:08.378Z,98.82
2023-02-24T00:06:41.007Z,98.54
2023-02-24T00:09:10.997Z,99.55
2023-02-24T00:11:43.542Z,99.56
2023-02-24T00:14:15.830Z,99.90
2023-02-24T00:16:45.054Z,99.90
2023-02-24T00:19:16.225Z,100.00
2023-02-24T00:21:44.927Z,98.26
2023-02-24T00:24:13.280Z,98.78
2023-02-24T00:26:41.505Z,99.43
2023-02-24T00:29:12.462Z,99.49
2023-02-24T00:31:42.937Z,99.52
2023-02-24T00:34:13.175Z,99.09
2023-02-24T00:36:41.585Z,99.81
2023-02-24T00:39:12.270Z,99.33
2023-02-24T00:41:42.341Z,99.62
2023-02-24T00:44:13.373Z,99.78
2023-02-24T00:46:44.592Z,99.72
2023-02-24T00:49:16.834Z,99.63
2023-02-24T00:51:48.459Z,99.95
2023-02-24T00:54:18.692Z,99.94
2023-02-24T00:56:47.996Z,99.88
2023-02-24T00:59:18.573Z,98.88
2023-02-24T01:01:49.805Z,98.44
2023-02-24T01:04:18.926Z,98.09
2023-02-24T01:06:48.407Z,98.20
2023-02-24T01:09:20.052Z,97.74
2023-02-24T01:12:08.016Z,97.33
2023-02-24T01:14:36.983Z,97.91
2023-02-24T01:17:08.705Z,97.55
2023-02-24T01:19:37.684Z,97.58
2023-02-24T01:22:07.573Z,98.05
2023-02-24T01:24:38.028Z,99.02
2023-02-24T01:27:08.176Z,98.61
2023-02-24T01:29:39.372Z,99.05
2023-02-24T01:32:16.805Z,98.80
2023-02-24T01:34:44.556Z,98.33
2023-02-24T01:37:16.192Z,97.74
2023-02-24T01:39:44.579Z,97.72
2023-02-24T01:42:16.343Z,97.25
2023-02-24T01:45:06.851Z,97.49
2023-02-24T01:47:38.613Z,97.36
2023-02-24T01:50:10.875Z,97.39
2023-02-24T01:52:39.853Z,97.31
2023-02-24T01:55:13.308Z,97.55
2023-02-24T01:57:46.048Z,97.04
2023-02-24T02:00:32.449Z,96.31
2023-02-24T02:03:07.899Z,96.95
2023-02-24T02:05:35.481Z,96.76
2023-02-24T02:08:05.901Z,97.29
2023-02-24T02:10:34.036Z,97.13
2023-02-24T02:13:04.497Z,96.69
2023-02-24T02:15:36.311Z,96.52
2023-02-24T02:18:12.607Z,96.17
2023-02-24T02:21:04.061Z,96.18
2023-02-24T02:23:57.883Z,96.36
2023-02-24T02:26:48.742Z,95.94
2023-02-24T02:29:47.553Z,95.83
2023-02-24T02:32:51.724Z,95.96
2023-02-24T02:35:24.156Z,95.90
2023-02-24T02:37:56.894Z,95.91
2023-02-24T02:40:29.136Z,96.02
2023-02-24T02:43:03.972Z,96.48
2023-02-24T02:45:40.132Z,96.27
2023-02-24T02:48:13.251Z,95.92
2023-02-24T02:50:49.723Z,96.41
2023-02-24T02:53:25.486Z,96.35
2023-02-24T02:55:57.874Z,95.84
2023-02-24T02:58:31.746Z,95.98
2023-02-24T03:01:02.585Z,95.51
2023-02-24T03:03:33.197Z,94.77
2023-02-24T03:06:07.424Z,94.75
2023-02-24T03:08:40.328Z,95.35
2023-02-24T03:11:10.533Z,95.16
2023-02-24T03:13:42.309Z,95.57
2023-02-24T03:16:12.550Z,94.85
2023-02-24T03:18:50.785Z,94.85
2023-02-24T03:21:30.651Z,95.28
2023-02-24T03:23:58.533Z,94.35
2023-02-24T03:26:30.430Z,94.39
2023-02-24T03:29:07.366Z,94.83
2023-02-24T03:31:43.589Z,94.39
2023-02-24T03:34:19.028Z,93.30
2023-02-24T03:36:48.992Z,93.93
2023-02-24T03:39:17.315Z,93.83
2023-02-24T03:41:59.911Z,94.04
2023-02-24T03:44:29.883Z,94.42
2023-02-24T03:46:57.691Z,94.37
2023-02-24T03:49:25.602Z,94.55
2023-02-24T03:52:09.665Z,93.99
2023-02-24T03:54:52.674Z,94.39
2023-02-24T03:57:34.681Z,93.99
2023-02-24T04:00:22.393Z,94.89
2023-02-24T04:03:04.182Z,95.56
2023-02-24T04:05:37.517Z,95.56
2023-02-24T04:08:10.112Z,94.81
2023-02-24T04:10:42.185Z,94.35
2023-02-24T04:13:19.721Z,94.01
2023-02-24T04:15:57.295Z,94.29
2023-02-24T04:18:29.059Z,94.28
2023-02-24T04:21:00.174Z,94.10
2023-02-24T04:23:33.755Z,94.21
2023-02-24T04:26:02.941Z,94.59
2023-02-24T04:28:32.178Z,94.68
2023-02-24T04:31:05.873Z,94.15
2023-02-24T04:33:35.516Z,93.50
2023-02-24T04:36:03.195Z,93.38
2023-02-24T04:38:36.819Z,93.82
2023-02-24T04:41:05.214Z,94.63
2023-02-24T04:43:32.728Z,95.15
2023-02-24T04:46:00.328Z,96.04
2023-02-24T04:48:30.065Z,96.06
2023-02-24T04:51:02.414Z,95.88
2023-02-24T04:53:30.214Z,96.30
2023-02-24T04:56:08.219Z,97.14
2023-02-24T04:58:37.318Z,96.44
2023-02-24T05:01:10.435Z,97.18
2023-02-24T05:03:38.771Z,96.94
2023-02-24T05:06:08.572Z,96.95
2023-02-24T05:08:38.503Z,97.26
2023-02-24T05:11:08.324Z,97.40
2023-02-24T05:13:37.550Z,96.60
2023-02-24T05:16:07.505Z,96.55
2023-02-24T05:18:36.891Z,96.79
2023-02-24T05:21:25.372Z,96.15
2023-02-24T05:23:55.366Z,94.96
2023-02-24T05:26:25.662Z,93.62
2023-02-24T05:28:56.372Z,93.79
2023-02-24T05:31:27.057Z,93.90
2023-02-24T05:33:57.510Z,94.03
2023-02-24T05:36:26.516Z,93.54
2023-02-24T05:38:57.841Z,93.47
2023-02-24T05:41:32.350Z,93.84
2023-02-24T05:44:04.668Z,94.09
2023-02-24T05:46:34.362Z,94.50
2023-02-24T05:49:04.676Z,95.41
2023-02-24T05:51:35.409Z,95.07
2023-02-24T05:54:04.591Z,94.78
2023-02-24T05:56:34.824Z,94.97
2023-02-24T05:59:03.762Z,94.54
2023-02-24T06:01:32.958Z,94.71
2023-02-24T06:04:05.944Z,95.39
2023-02-24T06:06:38.042Z,95.27
2023-02-24T06:09:10.720Z,95.75
2023-02-24T06:11:41.632Z,95.61
2023-02-24T06:14:10.539Z,96.18
2023-02-24T06:16:40.699Z,96.87
2023-02-24T06:19:09.882Z,96.66
2023-02-24T06:21:41.052Z,97.04
2023-02-24T06:24:14.383Z,99.45
2023-02-24T06:26:43.998Z,96.60
2023-02-24T06:29:15.550Z,95.74
2023-02-24T06:31:44.124Z,95.83
2023-02-24T06:34:13.381Z,96.15
2023-02-24T06:36:43.061Z,97.70
2023-02-24T06:39:14.387Z,95.45
2023-02-24T06:41:43.643Z,95.20
2023-02-24T06:44:11.280Z,95.76
2023-02-24T06:46:38.812Z,95.83
2023-02-24T06:49:06.373Z,95.03
2023-02-24T06:51:33.987Z,94.55
2023-02-24T06:54:02.732Z,93.75
2023-02-24T06:56:32.335Z,93.05
2023-02-24T06:59:01.467Z,92.95
2023-02-24T07:01:29.820Z,92.42
2023-02-24T07:04:20.205Z,93.04
2023-02-24T07:06:52.092Z,93.75
2023-02-24T07:09:22.367Z,93.53
2023-02-24T07:11:52.208Z,93.41
2023-02-24T07:14:23.005Z,92.27
2023-02-24T07:16:54.216Z,91.88
2023-02-24T07:19:24.251Z,90.89
2023-02-24T07:21:52.687Z,91.31
2023-02-24T07:24:25.879Z,91.11
2023-02-24T07:26:58.079Z,90.18
2023-02-24T07:29:29.015Z,90.59
2023-02-24T07:32:01.421Z,89.70
2023-02-24T07:34:29.200Z,90.34
2023-02-24T07:36:57.769Z,90.59
2023-02-24T07:39:25.597Z,88.20
2023-02-24T07:41:55.444Z,87.21
2023-02-24T07:44:24.462Z,87.61
2023-02-24T07:46:54.259Z,87.51
2023-02-24T07:49:25.870Z,88.23
2023-02-24T07:51:57.700Z,88.05
2023-02-24T07:54:28.636Z,88.56
2023-02-24T07:56:59.049Z,88.13
2023-02-24T07:59:29.447Z,87.62
2023-02-24T08:01:58.574Z,87.07
2023-02-24T08:04:28.499Z,87.35
2023-02-24T08:06:57.429Z,87.04
2023-02-24T08:09:44.215Z,86.50
2023-02-24T08:12:13.711Z,86.59
2023-02-24T08:14:44.605Z,86.25
2023-02-24T08:17:19.746Z,86.86
2023-02-24T08:19:48.304Z,85.79
2023-02-24T08:22:21.078Z,84.78
2023-02-24T08:24:52.826Z,85.29
2023-02-24T08:27:22.343Z,84.45
2023-02-24T08:30:01.603Z,85.12
2023-02-24T08:32:34.575Z,82.79
2023-02-24T08:35:04.632Z,82.54
2023-02-24T08:37:39.595Z,83.01
2023-02-24T08:40:29.380Z,83.91
2023-02-24T08:42:58.571Z,82.99
2023-02-24T08:45:28.705Z,82.37
2023-02-24T08:48:01.497Z,82.73
2023-02-24T08:50:32.563Z,82.92
2023-02-24T08:53:01.018Z,84.04
2023-02-24T08:55:32.937Z,83.12
2023-02-24T08:58:01.644Z,83.98
2023-02-24T09:00:48.901Z,83.50
2023-02-24T09:03:28.821Z,83.80
2023-02-24T09:06:01.944Z,83.93
2023-02-24T09:08:33.511Z,82.54
2023-02-24T09:11:02.112Z,83.33
2023-02-24T09:13:32.963Z,83.49
2023-02-24T09:16:02.222Z,84.25
2023-02-24T09:18:38.315Z,83.67
2023-02-24T09:21:36.900Z,84.03
2023-02-24T09:24:07.660Z,84.54
2023-02-24T09:26:43.052Z,85.81
2023-02-24T09:29:32.824Z,86.85
2023-02-24T09:32:05.382Z,86.85
2023-02-24T09:34:36.401Z,87.04
2023-02-24T09:37:05.321Z,87.31
2023-02-24T09:39:55.400Z,87.14
2023-02-24T09:42:33.207Z,85.73
2023-02-24T09:45:04.315Z,86.80
2023-02-24T09:47:56.722Z,87.15
2023-02-24T09:51:02.546Z,87.11
2023-02-24T09:53:41.296Z,85.15
2023-02-24T09:56:22.042Z,82.96
2023-02-24T09:58:53.138Z,80.09
2023-02-24T10:01:42.642Z,81.40
2023-02-24T10:04:49.012Z,80.58
2023-02-24T10:07:25.312Z,81.57
2023-02-24T10:10:18.674Z,81.80
2023-02-24T10:12:51.082Z,81.90
2023-02-24T10:15:41.551Z,81.18
2023-02-24T10:18:28.273Z,79.77
2023-02-24T10:21:02.728Z,80.53
2023-02-24T10:23:46.435Z,80.95
2023-02-24T10:26:31.595Z,80.02
2023-02-24T10:29:08.961Z,79.33
2023-02-24T10:31:47.905Z,78.47
2023-02-24T10:34:25.440Z,79.25
2023-02-24T10:36:57.392Z,79.32
2023-02-24T10:39:27.010Z,79.48
2023-02-24T10:41:58.237Z,78.06
2023-02-24T10:44:35.928Z,77.98
2023-02-24T10:47:12.197Z,77.82
2023-02-24T10:49:56.704Z,78.49
2023-02-24T10:52:50.280Z,80.03
2023-02-24T10:55:29.111Z,80.25
2023-02-24T10:58:06.827Z,81.26
2023-02-24T11:01:12.461Z,81.22
2023-02-24T11:03:47.968Z,81.15
2023-02-24T11:06:52.519Z,81.18
2023-02-24T11:09:35.365Z,82.45
2023-02-24T11:12:33.099Z,80.78
2023-02-24T11:15:21.861Z,81.12
2023-02-24T11:17:53.367Z,80.50
2023-02-24T11:20:42.294Z,80.92
2023-02-24T11:23:18.732Z,80.73
2023-02-24T11:25:49.663Z,80.12
2023-02-24T11:28:37.674Z,80.41
2023-02-24T11:31:18.290Z,79.63
2023-02-24T11:33:52.390Z,77.19
2023-02-24T11:36:29.645Z,76.86
2023-02-24T11:39:18.755Z,77.62
2023-02-24T11:41:53.396Z,75.89
2023-02-24T11:44:29.018Z,76.43
2023-02-24T11:47:00.633Z,76.90
2023-02-24T11:49:36.985Z,77.59
2023-02-24T11:52:08.046Z,77.29
2023-02-24T11:54:40.066Z,77.34
2023-02-24T11:57:15.380Z,76.54
2023-02-24T11:59:50.037Z,77.23
2023-02-24T12:02:24.434Z,76.88
2023-02-24T12:05:00.760Z,77.69
2023-02-24T12:07:34.409Z,78.49
2023-02-24T12:10:16.625Z,77.27
2023-02-24T12:12:51.679Z,76.28
2023-02-24T12:15:25.596Z,76.94
2023-02-24T12:18:04.234Z,77.42
2023-02-24T12:20:37.014Z,77.49
2023-02-24T12:23:17.174Z,78.25
2023-02-24T12:26:06.667Z,78.67
2023-02-24T12:28:48.623Z,79.46
2023-02-24T12:31:29.190Z,79.57
2023-02-24T12:34:08.573Z,80.22
2023-02-24T12:37:11.250Z,80.94
2023-02-24T12:39:48.870Z,81.05
2023-02-24T12:42:26.678Z,81.09
2023-02-24T12:45:02.121Z,81.17
2023-02-24T12:47:43.872Z,80.85
2023-02-24T12:50:22.720Z,82.22
2023-02-24T12:53:01.378Z,82.53
2023-02-24T12:55:37.930Z,82.32
2023-02-24T12:58:12.825Z,80.36
2023-02-24T13:00:51.241Z,80.89
2023-02-24T13:03:33.709Z,81.46
2023-02-24T13:06:13.208Z,81.81
2023-02-24T13:08:50.733Z,81.21
2023-02-24T13:11:28.765Z,82.15
2023-02-24T13:14:00.549Z,82.01
2023-02-24T13:16:29.472Z,82.14
2023-02-24T13:19:07.794Z,81.57
2023-02-24T13:21:35.532Z,81.08
2023-02-24T13:24:03.922Z,80.67
2023-02-24T13:26:33.111Z,80.57
2023-02-24T13:29:03.273Z,80.93
2023-02-24T13:31:43.605Z,81.04
2023-02-24T13:34:30.980Z,81.11
2023-02-24T13:36:58.616Z,81.18
2023-02-24T13:39:34.250Z,81.70
2023-02-24T13:42:04.622Z,81.38
2023-02-24T13:44:32.877Z,81.19
2023-02-24T13:47:35.602Z,80.93
2023-02-24T13:50:19.659Z,81.67
2023-02-24T13:53:05.331Z,81.75
2023-02-24T13:55:47.843Z,81.47
2023-02-24T13:58:42.037Z,81.94
2023-02-24T14:01:12.293Z,82.08
2023-02-24T14:03:42.092Z,82.01
2023-02-24T14:06:19.106Z,82.16
2023-02-24T14:08:50.899Z,82.23
2023-02-24T14:11:21.730Z,82.38
2023-02-24T14:13:52.114Z,82.54
2023-02-24T14:16:23.801Z,81.51
2023-02-24T14:18:56.335Z,81.36
2023-02-24T14:21:27.561Z,81.61
2023-02-24T14:24:00.302Z,80.02
2023-02-24T14:26:28.726Z,80.88
2023-02-24T14:29:01.348Z,80.54
2023-02-24T14:31:31.209Z,80.47
2023-02-24T14:34:02.386Z,80.63
2023-02-24T14:36:34.211Z,80.42
2023-02-24T14:39:07.945Z,80.48
2023-02-24T14:41:35.590Z,79.99
2023-02-24T14:44:16.431Z,79.87
2023-02-24T14:46:48.676Z,79.77
2023-02-24T14:49:21.260Z,79.57
2023-02-24T14:51:54.834Z,79.50
2023-02-24T14:54:36.292Z,79.80
2023-02-24T14:57:04.596Z,80.30
2023-02-24T14:59:35.273Z,80.84
2023-02-24T15:02:05.404Z,80.98
2023-02-24T15:04:37.007Z,80.50
2023-02-24T15:07:08.549Z,80.11
2023-02-24T15:09:41.802Z,80.65
2023-02-24T15:12:13.679Z,81.04
2023-02-24T15:14:47.998Z,80.88
2023-02-24T15:17:19.144Z,81.30
2023-02-24T15:19:48.938Z,81.99
2023-02-24T15:22:25.259Z,82.18
2023-02-24T15:24:55.627Z,82.74
2023-02-24T15:27:28.775Z,82.94
2023-02-24T15:30:02.346Z,83.48
2023-02-24T15:32:33.592Z,83.24
2023-02-24T15:35:02.306Z,83.46
2023-02-24T15:37:38.812Z,83.47
2023-02-24T15:40:18.687Z,83.80
2023-02-24T15:42:51.456Z,84.16
2023-02-24T15:45:31.132Z,84.12
2023-02-24T15:48:01.432Z,83.68
2023-02-24T15:50:30.725Z,83.87
2023-02-24T15:53:04.569Z,83.70
2023-02-24T15:55:32.705Z,83.67
2023-02-24T15:58:03.006Z,83.67
2023-02-24T16:00:32.243Z,83.17
2023-02-24T16:02:59.980Z,83.90
2023-02-24T16:05:27.790Z,86.54
2023-02-24T16:07:55.717Z,83.41
2023-02-24T16:10:27.798Z,83.24
2023-02-24T16:12:57.388Z,83.59
2023-02-24T16:15:27.974Z,83.27
2023-02-24T16:17:56.320Z,83.67
2023-02-24T16:20:28.173Z,83.50
2023-02-24T16:22:57.204Z,82.74
2023-02-24T16:25:27.205Z,82.67
2023-02-24T16:27:57.306Z,82.92
2023-02-24T16:30:30.217Z,82.13
2023-02-24T16:32:58.602Z,83.02
2023-02-24T16:35:27.554Z,82.64
2023-02-24T16:37:55.488Z,83.23
2023-02-24T16:40:27.813Z,83.35
2023-02-24T16:42:55.414Z,82.38
2023-02-24T16:45:26.608Z,82.84
2023-02-24T16:47:56.459Z,82.56
2023-02-24T16:50:26.373Z,83.12
2023-02-24T16:52:53.949Z,83.12
2023-02-24T16:55:21.528Z,83.08
2023-02-24T16:57:50.477Z,83.73
2023-02-24T17:00:23.586Z,83.97
2023-02-24T17:02:52.573Z,83.95
2023-02-24T17:05:22.542Z,83.49
2023-02-24T17:07:51.818Z,83.20
2023-02-24T17:10:20.450Z,83.15
2023-02-24T17:12:48.259Z,83.18
2023-02-24T17:15:19.335Z,84.02
2023-02-24T17:17:47.200Z,83.74
2023-02-24T17:20:16.804Z,84.80
2023-02-24T17:22:45.003Z,85.90
2023-02-24T17:25:16.176Z,86.53
2023-02-24T17:27:43.991Z,86.94
2023-02-24T17:30:14.306Z,87.72
2023-02-24T17:32:43.287Z,88.22
2023-02-24T17:35:11.186Z,88.48
2023-02-24T17:37:38.829Z,88.76
2023-02-24T17:40:07.625Z,89.44
2023-02-24T17:42:35.613Z,89.69
2023-02-24T17:45:03.845Z,89.65
2023-02-24T17:47:31.715Z,89.41
2023-02-24T17:50:00.650Z,89.46
2023-02-24T17:52:29.510Z,88.95
2023-02-24T17:54:58.788Z,88.26
2023-02-24T17:57:27.038Z,88.98
2023-02-24T17:59:54.611Z,89.06
2023-02-24T18:02:23.993Z,88.03
2023-02-24T18:04:51.713Z,88.03
2023-02-24T18:07:21.193Z,87.87
2023-02-24T18:09:48.941Z,87.46
2023-02-24T18:12:18.459Z,87.73
2023-02-24T18:14:48.393Z,88.62
2023-02-24T18:17:17.239Z,88.97
2023-02-24T18:19:44.821Z,88.57
2023-02-24T18:22:12.793Z,89.15
2023-02-24T18:24:41.832Z,89.09
2023-02-24T18:27:09.480Z,89.23
2023-02-24T18:29:37.080Z,89.92
2023-02-24T18:32:05.242Z,89.95
2023-02-24T18:34:33.069Z,89.85
2023-02-24T18:37:01.302Z,90.46
2023-02-24T18:39:29.580Z,90.78
2023-02-24T18:41:59.572Z,91.09
2023-02-24T18:44:28.360Z,90.50
2023-02-24T18:46:55.987Z,90.29
2023-02-24T18:49:23.753Z,90.54
2023-02-24T18:51:51.359Z,90.87
2023-02-24T18:54:19.462Z,90.56
2023-02-24T18:56:47.035Z,90.58
2023-02-24T18:59:15.942Z,91.09
2023-02-24T19:01:43.601Z,90.29
2023-02-24T19:04:17.632Z,90.55
2023-02-24T19:06:48.960Z,90.43
2023-02-24T19:09:21.367Z,90.89
2023-02-24T19:11:49.865Z,90.74
2023-02-24T19:14:18.815Z,90.25
2023-02-24T19:16:46.393Z,90.98
2023-02-24T19:19:16.270Z,90.65
2023-02-24T19:21:45.320Z,90.69
2023-02-24T19:24:13.663Z,90.65
2023-02-24T19:26:42.680Z,90.90
2023-02-24T19:29:10.893Z,90.70
2023-02-24T19:31:40.167Z,90.69
2023-02-24T19:34:11.112Z,90.55
2023-02-24T19:36:39.088Z,90.04
2023-02-24T19:39:10.305Z,90.71
2023-02-24T19:41:38.362Z,90.61
2023-02-24T19:44:06.492Z,89.83
2023-02-24T19:46:34.297Z,89.62
2023-02-24T19:49:03.593Z,89.28
2023-02-24T19:51:31.791Z,88.84
2023-02-24T19:54:02.618Z,89.29
2023-02-24T19:56:32.045Z,87.78
2023-02-24T19:59:01.271Z,88.05
2023-02-24T20:01:30.987Z,88.03
2023-02-24T20:04:00.277Z,87.95
2023-02-24T20:06:31.909Z,88.37
2023-02-24T20:09:00.010Z,87.95
2023-02-24T20:11:28.696Z,87.64
2023-02-24T20:13:56.655Z,87.18
2023-02-24T20:16:26.358Z,86.38
2023-02-24T20:18:55.518Z,86.52
2023-02-24T20:21:23.358Z,84.54
2023-02-24T20:23:52.425Z,84.79
2023-02-24T20:26:20.604Z,83.99
2023-02-24T20:28:48.873Z,84.18
2023-02-24T20:39:40.775Z,84.55
2023-02-24T20:42:08.427Z,83.98
2023-02-24T20:44:36.057Z,84.27
2023-02-24T20:47:03.645Z,84.79
2023-02-24T20:49:31.185Z,84.53
2023-02-24T20:51:58.787Z,83.96
2023-02-24T20:54:26.893Z,84.46
2023-02-24T20:56:55.905Z,84.39
2023-02-24T20:59:23.598Z,84.21
2023-02-24T21:01:51.813Z,84.33
2023-02-24T21:04:21.942Z,84.72
2023-02-24T21:11:49.984Z,74.77
2023-02-24T21:14:19.194Z,76.17
2023-02-24T21:16:46.930Z,78.67
2023-02-24T21:19:14.583Z,80.50
2023-02-24T21:21:42.105Z,81.71
2023-02-24T21:24:09.875Z,82.60
2023-02-24T21:26:37.442Z,84.58
2023-02-24T21:29:05.023Z,85.49
2023-02-24T21:31:34.089Z,86.75
2023-02-24T21:34:01.707Z,86.29
2023-02-24T21:36:29.339Z,86.78
2023-02-24T21:38:56.991Z,86.35
2023-02-24T21:41:24.931Z,87.24
2023-02-24T21:43:54.659Z,86.84
2023-02-24T21:46:22.821Z,87.38
2023-02-24T21:48:56.135Z,86.43
2023-02-24T21:51:24.788Z,87.19
2023-02-24T21:53:54.790Z,87.00
2023-02-24T21:56:24.583Z,87.70
2023-02-24T21:58:54.600Z,87.96
2023-02-24T22:01:25.111Z,86.79
2023-02-24T22:03:55.664Z,86.53
2023-02-24T22:06:23.992Z,87.06
2023-02-24T22:08:51.681Z,87.02
2023-02-24T22:11:20.108Z,87.66
2023-02-24T22:13:48.138Z,87.53
2023-02-24T22:16:18.023Z,87.36
2023-02-24T22:18:46.293Z,86.63
2023-02-24T22:21:18.239Z,86.29
2023-02-24T22:23:46.683Z,87.35
2023-02-24T22:26:14.849Z,86.82
2023-02-24T22:28:44.564Z,87.15
2023-02-24T22:31:13.714Z,87.27
2023-02-24T22:33:43.328Z,87.67
2023-02-24T22:36:14.062Z,86.91
2023-02-24T22:38:45.465Z,86.78
2023-02-24T22:41:15.370Z,86.29
2023-02-24T22:43:43.058Z,86.96
2023-02-24T22:46:14.211Z,87.90
2023-02-24T22:48:42.074Z,87.84
2023-02-24T22:51:11.866Z,87.86
2023-02-24T22:53:42.255Z,87.75
2023-02-24T22:56:12.828Z,86.94
2023-02-24T22:58:40.936Z,86.34
2023-02-24T23:01:10.407Z,84.34
2023-02-24T23:03:38.190Z,84.02
2023-02-24T23:06:08.235Z,85.39
2023-02-24T23:08:39.218Z,87.04
2023-02-24T23:11:09.105Z,87.03
2023-02-24T23:13:38.202Z,86.26
2023-02-24T23:16:08.304Z,87.09
2023-02-24T23:18:36.859Z,88.05
2023-02-24T23:21:07.932Z,87.92
2023-02-24T23:23:36.545Z,88.65
2023-02-24T23:26:04.388Z,89.07
2023-02-24T23:28:31.959Z,88.83
2023-02-24T23:31:00.884Z,86.19
2023-02-24T23:33:28.484Z,84.51
2023-02-24T23:35:56.209Z,82.84
2023-02-24T23:38:23.707Z,82.27
2023-02-24T23:40:51.851Z,80.95
2023-02-24T23:43:19.652Z,80.98
2023-02-24T23:45:47.245Z,81.36
2023-02-24T23:48:16.131Z,81.51
2023-02-24T23:50:45.902Z,83.46
2023-02-24T23:53:13.472Z,83.88
2023-02-24T23:55:41.868Z,84.05
2023-02-24T23:58:09.428Z,80.81
